Terminal Aerodrome Forecast
Issued by NWS

Home | Current Version | Previous Version | Text Only | Print | Product List | Glossary On
Versions: 1 2 3 4 5 6 7 8 9 10 11 12 13
130
FTUS45 KRIW 201133
TAFCOD
TAF
KCOD 201133Z 2012/2112 23010KT P6SM SCT080 WS017/26045KT
     FM202000 23016G26KT P6SM SCT070 BKN150
     FM210600 23018G28KT P6SM SCT050 BKN090
      AMD LTD TO CLD VIS AND WIND=

USA.gov is the U.S. government's official web portal to all federal, state and local government web resources and services.